Time;durP1;ratioP1;P1;durP2;ratioP2;P2;SDS_P1;SDS_P2;PMS_P1;PMS_P2;Temp;Humidity;BMP_temperature;BMP_pressure;BME280_temperature;BME280_humidity;BME280_pressure;Samples;Min_cycle;Max_cycle;Signal;HPM_P1;HPM_P2
2022/09/12 04:36:05;;;;;;;12.98;8.40;;;;;;;12.94;100.00;100188.25;6141944;26;14185415;-89
2022/09/12 04:46:46;;;;;;;9.05;8.10;;;;;;;12.40;100.00;100193.25;6654017;26;20039;-89
2022/09/12 04:49:55;;;;;;;10.18;7.62;;;;;;;12.39;100.00;100185.38;6645260;26;35889;-89
2022/09/12 04:52:57;;;;;;;9.77;8.13;;;;;;;12.46;100.00;100189.34;6642127;26;34193;-89
2022/09/12 04:56:02;;;;;;;9.38;7.78;;;;;;;12.54;100.00;100195.06;6642620;26;33997;-89
2022/09/12 06:19:55;;;;;;;14.45;8.50;;;;;;;15.00;100.00;100239.66;6634066;26;20146;-89
2022/09/12 06:22:58;;;;;;;9.40;8.32;;;;;;;14.98;99.39;100240.72;6635960;26;35078;-88
2022/09/12 07:15:09;;;;;;;12.88;8.05;;;;;;;17.29;84.18;100259.31;6565571;26;20079;-88
2022/09/12 07:18:15;;;;;;;9.65;7.70;;;;;;;17.99;81.30;100262.56;6595519;26;34054;-89
2022/09/12 07:21:18;;;;;;;9.35;7.90;;;;;;;17.72;80.78;100263.87;6640740;26;34373;-88
2022/09/12 07:24:21;;;;;;;10.52;7.53;;;;;;;18.42;77.66;100251.91;6623652;26;33237;-87
2022/09/12 07:27:24;;;;;;;8.65;6.93;;;;;;;18.91;73.44;100271.00;6601770;26;35466;-88
2022/09/12 07:30:27;;;;;;;8.32;6.62;;;;;;;20.58;66.82;100265.13;6632851;26;33200;-88
2022/09/12 07:33:30;;;;;;;8.90;6.43;;;;;;;22.20;60.18;100273.03;6651458;26;36134;-86
2022/09/12 07:36:33;;;;;;;9.77;6.93;;;;;;;21.17;65.68;100269.53;6649720;26;34827;-86
2022/09/12 07:39:36;;;;;;;9.50;7.03;;;;;;;19.74;69.77;100277.28;6648495;26;34170;-86
2022/09/12 07:42:39;;;;;;;8.52;5.87;;;;;;;18.77;73.48;100274.06;6632129;26;32757;-86
2022/09/12 07:45:42;;;;;;;9.05;6.55;;;;;;;18.94;74.23;100277.94;6652386;26;35087;-88
2022/09/12 07:48:48;;;;;;;8.50;6.37;;;;;;;18.27;75.29;100273.72;6650143;26;35483;-88
2022/09/12 07:51:52;;;;;;;8.43;6.57;;;;;;;18.79;74.10;100277.44;6643456;26;34973;-88
2022/09/12 07:54:54;;;;;;;10.68;6.60;;;;;;;19.90;70.19;100274.03;6632745;26;34023;-89
2022/09/12 07:57:57;;;;;;;7.47;5.75;;;;;;;21.07;64.40;100272.25;6631657;26;33589;-89
2022/09/12 08:01:02;;;;;;;6.65;5.72;;;;;;;23.21;57.25;100272.72;6648896;26;34153;-90
2022/09/12 08:04:06;;;;;;;6.65;5.25;;;;;;;23.41;53.66;100267.94;6635449;26;34206;-90
2022/09/12 08:33:50;;;;;;;5.87;5.25;;;;;;;24.77;50.25;100265.91;6627349;26;20147;-88
2022/09/12 08:36:53;;;;;;;7.65;4.93;;;;;;;25.09;48.71;100259.75;6627016;26;34607;-89
2022/09/12 08:39:56;;;;;;;9.23;4.50;;;;;;;24.93;48.82;100263.34;6612091;26;33762;-89
2022/09/12 08:43:13;;;;;;;5.90;4.25;;;;;;;24.40;49.92;100256.47;6634001;26;35035;-88
2022/09/12 08:46:37;;;;;;;5.10;4.60;;;;;;;24.79;47.97;100259.44;6615889;26;34046;-89
2022/09/12 08:50:00;;;;;;;12.23;4.50;;;;;;;25.65;45.48;100258.84;6633602;26;35236;-92
2022/09/12 08:53:12;;;;;;;4.50;3.87;;;;;;;24.70;49.18;100256.78;6632805;26;34306;-89
2022/09/12 08:56:15;;;;;;;4.28;3.72;;;;;;;25.67;44.92;100263.06;6633153;26;34174;-89
2022/09/12 08:59:18;;;;;;;5.30;4.18;;;;;;;24.63;47.18;100247.59;6633346;26;33836;-90
2022/09/12 09:02:44;;;;;;;7.53;3.83;;;;;;;25.07;47.45;100249.06;6634393;26;35214;-89
2022/09/12 09:06:01;;;;;;;5.57;3.80;;;;;;;24.72;45.62;100254.72;6623478;26;33087;-89
2022/09/12 09:09:31;;;;;;;3.83;3.50;;;;;;;24.43;45.89;100250.69;6634548;26;34778;-89
2022/09/12 09:12:52;;;;;;;3.42;3.10;;;;;;;23.51;49.03;100248.84;6618233;26;34936;-89
2022/09/12 09:16:12;;;;;;;4.15;3.55;;;;;;;24.68;46.26;100249.81;6634500;26;34788;-88
2022/09/12 09:19:26;;;;;;;6.17;3.37;;;;;;;25.53;44.30;100247.50;6634509;26;33996;-89
2022/09/12 09:22:43;;;;;;;3.60;3.30;;;;;;;26.42;42.05;100229.91;6614887;26;33374;-92
2022/09/12 09:25:52;;;;;;;4.50;4.10;;;;;;;25.36;43.55;100242.16;6634946;26;34756;-89
2022/09/12 09:29:01;;;;;;;4.53;3.17;;;;;;;24.04;47.45;100238.62;6634716;26;34325;-89
2022/09/12 09:32:13;;;;;;;3.22;2.92;;;;;;;24.71;45.54;100247.59;6614697;26;32737;-89
2022/09/12 09:35:22;;;;;;;4.03;2.97;;;;;;;25.07;43.68;100238.19;6614165;26;32937;-89
2022/09/12 09:38:52;;;;;;;3.30;3.00;;;;;;;25.31;44.08;100241.84;6634760;26;33877;-89
2022/09/12 09:41:58;;;;;;;3.28;2.97;;;;;;;25.04;43.39;100243.97;6615199;26;33391;-89
2022/09/12 09:45:11;;;;;;;9.93;3.12;;;;;;;25.05;44.35;100234.84;6636660;26;34129;-89
2022/09/12 09:48:21;;;;;;;5.25;3.05;;;;;;;25.80;42.58;100248.06;6616634;26;34082;-89
2022/09/12 09:51:33;;;;;;;2.70;2.50;;;;;;;26.49;41.69;100247.19;6617598;26;32476;-89
2022/09/12 09:54:41;;;;;;;2.75;2.55;;;;;;;25.54;40.48;100250.06;6640055;26;34252;-89
2022/09/12 09:57:46;;;;;;;14.55;2.80;;;;;;;25.03;41.68;100242.28;6621447;26;33143;-89
2022/09/12 10:00:58;;;;;;;3.42;2.78;;;;;;;24.41;42.83;100239.19;6634492;26;33837;-89
2022/09/12 10:04:02;;;;;;;3.00;2.70;;;;;;;24.01;44.85;100240.81;6636839;26;33867;-88
2022/09/12 10:07:05;;;;;;;4.20;2.97;;;;;;;23.01;47.87;100240.50;6629588;26;34074;-88
2022/09/12 10:13:52;;;;;;;3.20;2.90;;;;;;;23.69;47.81;100235.22;6528446;27;34509;-88
2022/09/12 10:20:38;;;;;;;2.80;2.60;;;;;;;23.47;46.70;100240.22;6630216;26;20069;-88
2022/09/12 10:23:42;;;;;;;3.10;2.80;;;;;;;22.35;48.61;100249.03;6634272;26;34184;-87
2022/09/12 10:26:50;;;;;;;2.72;2.53;;;;;;;21.83;50.32;100250.59;6633810;26;33827;-87
2022/09/12 10:29:58;;;;;;;2.83;2.62;;;;;;;21.54;51.03;100243.50;6632919;26;34220;-88
2022/09/12 10:33:10;;;;;;;2.80;2.60;;;;;;;21.40;50.73;100247.56;6613479;26;34170;-88
2022/09/12 10:36:15;;;;;;;3.15;2.80;;;;;;;21.41;50.95;100241.16;6635490;26;34690;-87
2022/09/12 10:39:18;;;;;;;3.30;3.00;;;;;;;21.03;52.06;100241.22;6634239;26;33915;-87
2022/09/12 10:42:54;;;;;;;3.42;2.70;;;;;;;21.21;52.47;100240.41;6614914;26;33990;-88
2022/09/12 10:45:58;;;;;;;3.70;2.78;;;;;;;21.60;52.06;100231.25;6632980;26;34201;-87
2022/09/12 10:49:21;;;;;;;2.80;2.50;;;;;;;21.60;51.90;100229.41;6633524;26;33701;-90
2022/09/12 10:52:24;;;;;;;2.80;2.60;;;;;;;21.77;51.47;100224.22;6634554;26;34351;-89
2022/09/12 10:55:33;;;;;;;2.75;2.55;;;;;;;21.21;53.26;100232.31;6616659;26;33238;-88
2022/09/12 10:58:53;;;;;;;3.15;2.85;;;;;;;21.98;52.03;100231.16;6639100;26;34298;-88
2022/09/12 11:02:24;;;;;;;2.70;2.50;;;;;;;22.38;50.54;100226.25;6642531;26;35638;-88
2022/09/12 11:05:37;;;;;;;;;;;;;;;22.39;51.96;100219.84;6638974;26;33908;-89
2022/09/12 11:08:49;;;;;;;3.72;2.67;;;;;;;22.29;50.59;100218.09;6640696;26;34509;-88
2022/09/12 11:12:35;;;;;;;3.37;2.70;;;;;;;22.37;50.52;100219.16;6625841;26;33924;-88
2022/09/12 11:54:19;;;;;;;3.50;2.90;;;;;;;21.71;49.84;100212.16;6635086;26;20047;-88
2022/09/12 12:09:11;;;;;;;6.62;2.80;;;;;;;20.18;55.98;100220.37;6627568;26;20072;-89
2022/09/12 12:20:03;;;;;;;3.28;2.90;;;;;;;21.07;54.01;100209.41;6489238;27;20092;-88
2022/09/12 12:23:36;;;;;;;2.78;2.58;;;;;;;21.65;51.67;100200.13;6495621;27;33253;-88
2022/09/12 12:26:39;;;;;;;5.03;3.10;;;;;;;21.66;51.68;100193.72;6488283;27;34277;-89
2022/09/12 12:29:54;;;;;;;3.37;2.60;;;;;;;21.58;51.86;100190.94;6494950;27;33861;-89
2022/09/12 12:33:06;;;;;;;3.35;2.60;;;;;;;21.64;51.41;100198.41;6494897;27;33829;-88
2022/09/12 12:36:32;;;;;;;3.33;2.78;;;;;;;21.44;52.30;100189.59;6490353;27;35044;-88
2022/09/12 12:39:35;;;;;;;7.45;2.72;;;;;;;21.93;50.46;100186.56;6493257;27;34778;-88
2022/09/12 12:42:37;;;;;;;2.65;2.45;;;;;;;21.95;50.55;100183.69;6494969;27;33576;-88
2022/09/12 12:45:40;;;;;;;2.80;2.55;;;;;;;21.45;51.06;100188.59;6497438;27;35338;-89
2022/09/12 12:49:09;;;;;;;4.70;2.45;;;;;;;21.05;53.04;100198.75;6550033;26;35504;-91
2022/09/12 12:52:17;;;;;;;2.75;2.45;;;;;;;21.28;52.11;100192.97;6632002;26;34108;-88
2022/09/12 12:55:25;;;;;;;2.72;2.47;;;;;;;21.60;51.72;100191.62;6620815;26;33715;-88
2022/09/12 12:58:36;;;;;;;4.72;2.50;;;;;;;22.10;51.13;100185.84;6636964;26;34745;-87
2022/09/12 13:01:46;;;;;;;3.10;2.50;;;;;;;22.30;49.32;100184.66;6619508;26;34403;-87
2022/09/12 13:04:55;;;;;;;5.57;3.22;;;;;;;21.63;51.51;100180.50;6634384;26;34160;-88
2022/09/12 13:08:10;;;;;;;3.25;2.47;;;;;;;21.40;52.33;100188.19;6635400;26;33841;-87
2022/09/12 13:11:28;;;;;;;2.45;2.25;;;;;;;21.05;52.80;100198.75;6634203;26;34148;-87
2022/09/12 13:14:46;;;;;;;2.55;2.35;;;;;;;21.51;50.69;100198.78;6635013;26;34776;-87
2022/09/12 13:17:50;;;;;;;3.67;2.35;;;;;;;21.16;50.53;100200.41;6614045;26;33875;-86
2022/09/12 13:21:15;;;;;;;3.83;2.33;;;;;;;21.34;50.60;100191.50;6614334;26;33613;-87
2022/09/12 13:24:21;;;;;;;2.72;2.20;;;;;;;21.46;50.00;100186.75;6634076;26;33712;-87
2022/09/12 13:27:24;;;;;;;2.58;2.30;;;;;;;21.44;51.22;100186.03;6634161;26;34094;-89
2022/09/12 13:30:31;;;;;;;3.85;2.40;;;;;;;21.04;51.57;100174.62;6628285;26;34243;-88
2022/09/12 13:37:39;;;;;;;2.62;2.42;;;;;;;21.39;50.67;100170.31;6635040;26;20078;-88
2022/09/12 13:40:56;;;;;;;;;;;;;;;20.99;51.66;100172.41;6631212;26;33742;-88
2022/09/12 13:47:45;;;;;;;2.47;2.28;;;;;;;20.49;52.96;100166.31;6637605;26;20075;-89
2022/09/12 13:50:59;;;;;;;5.03;2.30;;;;;;;20.65;51.12;100164.84;6634966;26;34122;-89
2022/09/12 13:54:04;;;;;;;2.55;2.33;;;;;;;21.01;49.75;100165.00;6611585;26;34954;-89
2022/09/12 13:57:29;;;;;;;2.22;2.00;;;;;;;21.30;48.79;100155.03;6627944;26;34577;-88
2022/09/12 14:08:07;;;;;;;1.90;1.45;;;;;;;21.99;45.51;100144.59;6631406;26;20079;-89
2022/09/12 14:11:17;;;;;;;2.37;1.50;;;;;;;21.78;43.57;100150.31;6635680;26;34788;-89
2022/09/12 14:14:30;;;;;;;1.62;1.52;;;;;;;21.76;42.78;100146.91;6627568;26;34606;-89
2022/09/12 14:17:38;;;;;;;5.18;1.45;;;;;;;21.88;41.76;100134.03;6629622;26;34567;-90
2022/09/12 14:20:41;;;;;;;1.77;1.67;;;;;;;21.81;42.73;100134.66;6634515;26;34750;-88
2022/09/12 14:23:47;;;;;;;1.48;1.37;;;;;;;22.04;41.92;100144.97;6602239;26;32864;-89
2022/09/12 14:26:54;;;;;;;5.03;1.48;;;;;;;21.80;41.86;100137.50;6605201;26;35050;-89
2022/09/12 14:30:07;;;;;;;1.67;1.58;;;;;;;21.71;42.38;100147.38;6600830;26;33133;-87
2022/09/12 14:33:10;;;;;;;1.33;1.25;;;;;;;22.12;42.53;100143.34;6604467;26;33325;-88
2022/09/12 14:39:41;;;;;;;5.22;1.58;;;;;;;21.98;43.05;100133.94;6593947;26;34636;-88
2022/09/12 14:42:48;;;;;;;2.65;1.27;;;;;;;22.18;41.71;100140.00;6583959;27;34196;-88
2022/09/12 14:49:35;;;;;;;1.42;1.33;;;;;;;22.07;42.03;100139.25;6634054;26;20305;-88
2022/09/12 14:52:38;;;;;;;1.35;1.25;;;;;;;21.68;42.45;100140.41;6622724;26;33817;-89
2022/09/12 14:55:45;;;;;;;2.50;1.70;;;;;;;21.72;41.39;100150.94;6631869;26;35206;-89
2022/09/12 14:58:49;;;;;;;1.55;1.40;;;;;;;21.57;41.84;100143.34;6613271;26;34331;-89
2022/09/12 15:02:30;;;;;;;3.08;1.65;;;;;;;21.51;42.26;100150.22;6628165;26;34098;-89
2022/09/12 15:05:54;;;;;;;1.55;1.45;;;;;;;21.61;41.60;100155.53;6627431;26;34404;-90
2022/09/12 15:20:18;;;;;;;2.08;1.42;;;;;;;21.29;43.43;100143.41;6625833;26;20075;-88
2022/09/12 15:23:50;;;;;;;1.58;1.35;;;;;;;20.94;43.84;100139.63;6610696;26;34106;-88
2022/09/12 15:38:01;;;;;;;3.00;1.10;;;;;;;20.54;45.12;100139.78;6638554;26;20083;-88
